Beaver River, New York
Current Conditions -  °F | °C
As of 9:08 AM on Thursday 30 Oct 2014 (Local Time) from KGTB Reporting Station
Overcast Overcast  
Wind Chill: 34°   Ceiling: 2900
Heat Index: 39°   Visibility: 10mi
Dew Point: 32°   Wind: 8mph
Humidity: 75%   Direction: 340°NNW
Pressure: 30.01"   Gusts: NA
Location:  43.7565°N, 75.5938°W
Report Text: KGTB 301308Z AUTO 34007KT 10SM OVC029 04/00 A3001 RMK AO2
Loading
Personal Weather Stations






























Interactive Weather Map
Tropical Storm Tracking
New forecast layout! Learn more

10-Day Weather Forecast

Advertisements
Track Severe Weather on mobile